sensor_id;sensor_type;location;lat;lon;timestamp;P1;durP1;ratioP1;P2;durP2;ratioP2
64682;SDS011;51107;47.652;19.016;2024-03-22T00:01:59;14.68;;;6.07;;
64682;SDS011;51107;47.652;19.016;2024-03-22T00:04:26;16.40;;;6.28;;
64682;SDS011;51107;47.652;19.016;2024-03-22T00:06:53;14.30;;;5.68;;
64682;SDS011;51107;47.652;19.016;2024-03-22T00:09:20;16.92;;;6.20;;
64682;SDS011;51107;47.652;19.016;2024-03-22T00:11:47;13.95;;;6.20;;
64682;SDS011;51107;47.652;19.016;2024-03-22T00:14:14;16.27;;;6.37;;
64682;SDS011;51107;47.652;19.016;2024-03-22T00:16:41;15.93;;;6.55;;
64682;SDS011;51107;47.652;19.016;2024-03-22T00:19:09;16.77;;;6.12;;
64682;SDS011;51107;47.652;19.016;2024-03-22T00:21:36;16.62;;;6.00;;
64682;SDS011;51107;47.652;19.016;2024-03-22T00:24:03;13.30;;;5.32;;
64682;SDS011;51107;47.652;19.016;2024-03-22T00:26:30;11.75;;;4.87;;
64682;SDS011;51107;47.652;19.016;2024-03-22T00:28:57;16.65;;;5.80;;
64682;SDS011;51107;47.652;19.016;2024-03-22T00:31:24;13.32;;;5.28;;
64682;SDS011;51107;47.652;19.016;2024-03-22T00:33:52;19.75;;;6.60;;
64682;SDS011;51107;47.652;19.016;2024-03-22T00:36:19;16.35;;;5.87;;
64682;SDS011;51107;47.652;19.016;2024-03-22T00:38:47;16.80;;;5.87;;
64682;SDS011;51107;47.652;19.016;2024-03-22T00:41:14;20.15;;;5.40;;
64682;SDS011;51107;47.652;19.016;2024-03-22T00:43:41;12.32;;;4.78;;
64682;SDS011;51107;47.652;19.016;2024-03-22T00:46:08;16.98;;;6.25;;
64682;SDS011;51107;47.652;19.016;2024-03-22T00:48:35;13.40;;;5.37;;
64682;SDS011;51107;47.652;19.016;2024-03-22T00:51:03;18.15;;;5.82;;
64682;SDS011;51107;47.652;19.016;2024-03-22T00:53:30;17.02;;;5.80;;
64682;SDS011;51107;47.652;19.016;2024-03-22T00:55:57;14.15;;;5.43;;
64682;SDS011;51107;47.652;19.016;2024-03-22T00:58:26;12.25;;;5.10;;
64682;SDS011;51107;47.652;19.016;2024-03-22T01:00:54;13.35;;;5.22;;
64682;SDS011;51107;47.652;19.016;2024-03-22T01:03:22;13.13;;;5.30;;
64682;SDS011;51107;47.652;19.016;2024-03-22T01:05:50;12.32;;;5.12;;
64682;SDS011;51107;47.652;19.016;2024-03-22T01:08:17;13.13;;;5.35;;
64682;SDS011;51107;47.652;19.016;2024-03-22T01:10:44;13.70;;;5.62;;
64682;SDS011;51107;47.652;19.016;2024-03-22T01:13:13;19.90;;;5.85;;
64682;SDS011;51107;47.652;19.016;2024-03-22T01:15:40;12.80;;;5.32;;
64682;SDS011;51107;47.652;19.016;2024-03-22T01:18:07;15.40;;;5.32;;
64682;SDS011;51107;47.652;19.016;2024-03-22T01:20:34;13.77;;;5.35;;
64682;SDS011;51107;47.652;19.016;2024-03-22T01:23:01;19.58;;;5.45;;
64682;SDS011;51107;47.652;19.016;2024-03-22T01:25:28;13.20;;;5.80;;
64682;SDS011;51107;47.652;19.016;2024-03-22T01:27:56;12.52;;;5.22;;
64682;SDS011;51107;47.652;19.016;2024-03-22T01:30:23;15.85;;;5.47;;
64682;SDS011;51107;47.652;19.016;2024-03-22T01:32:50;13.75;;;5.97;;
64682;SDS011;51107;47.652;19.016;2024-03-22T01:35:17;17.23;;;6.35;;
64682;SDS011;51107;47.652;19.016;2024-03-22T01:37:44;19.50;;;5.75;;
64682;SDS011;51107;47.652;19.016;2024-03-22T01:40:12;17.02;;;6.47;;
64682;SDS011;51107;47.652;19.016;2024-03-22T01:42:40;15.68;;;6.70;;
64682;SDS011;51107;47.652;19.016;2024-03-22T01:45:07;20.00;;;6.95;;
64682;SDS011;51107;47.652;19.016;2024-03-22T01:47:35;18.05;;;7.03;;
64682;SDS011;51107;47.652;19.016;2024-03-22T01:50:02;16.42;;;6.62;;
64682;SDS011;51107;47.652;19.016;2024-03-22T01:52:29;18.62;;;7.37;;
64682;SDS011;51107;47.652;19.016;2024-03-22T01:54:57;19.30;;;7.18;;
64682;SDS011;51107;47.652;19.016;2024-03-22T01:57:24;19.52;;;7.68;;
64682;SDS011;51107;47.652;19.016;2024-03-22T01:59:52;16.30;;;7.03;;
64682;SDS011;51107;47.652;19.016;2024-03-22T02:02:22;19.67;;;7.10;;
64682;SDS011;51107;47.652;19.016;2024-03-22T02:04:50;18.15;;;7.93;;
64682;SDS011;51107;47.652;19.016;2024-03-22T02:07:18;20.83;;;7.68;;
64682;SDS011;51107;47.652;19.016;2024-03-22T02:09:45;19.17;;;8.38;;
64682;SDS011;51107;47.652;19.016;2024-03-22T02:12:12;20.52;;;9.38;;
64682;SDS011;51107;47.652;19.016;2024-03-22T02:14:39;23.40;;;10.25;;
64682;SDS011;51107;47.652;19.016;2024-03-22T02:17:06;20.17;;;8.65;;
64682;SDS011;51107;47.652;19.016;2024-03-22T02:19:34;29.33;;;10.75;;
64682;SDS011;51107;47.652;19.016;2024-03-22T02:22:01;27.33;;;10.40;;
64682;SDS011;51107;47.652;19.016;2024-03-22T02:24:28;24.75;;;9.93;;
64682;SDS011;51107;47.652;19.016;2024-03-22T02:26:55;31.67;;;10.13;;
64682;SDS011;51107;47.652;19.016;2024-03-22T02:29:22;23.67;;;10.25;;
64682;SDS011;51107;47.652;19.016;2024-03-22T02:31:49;23.42;;;9.10;;
64682;SDS011;51107;47.652;19.016;2024-03-22T02:34:16;25.45;;;9.35;;
64682;SDS011;51107;47.652;19.016;2024-03-22T02:36:43;23.45;;;9.68;;
64682;SDS011;51107;47.652;19.016;2024-03-22T02:39:10;21.45;;;9.73;;
64682;SDS011;51107;47.652;19.016;2024-03-22T02:41:38;23.25;;;9.40;;
64682;SDS011;51107;47.652;19.016;2024-03-22T02:44:06;23.67;;;9.60;;
64682;SDS011;51107;47.652;19.016;2024-03-22T02:46:33;22.13;;;9.57;;
64682;SDS011;51107;47.652;19.016;2024-03-22T02:49:00;29.33;;;9.43;;
64682;SDS011;51107;47.652;19.016;2024-03-22T02:51:27;22.15;;;9.75;;
64682;SDS011;51107;47.652;19.016;2024-03-22T02:53:54;20.37;;;9.02;;
64682;SDS011;51107;47.652;19.016;2024-03-22T02:56:22;24.15;;;10.20;;
64682;SDS011;51107;47.652;19.016;2024-03-22T02:58:49;24.63;;;9.25;;
64682;SDS011;51107;47.652;19.016;2024-03-22T03:01:16;24.10;;;9.18;;
64682;SDS011;51107;47.652;19.016;2024-03-22T03:03:44;20.35;;;9.15;;
64682;SDS011;51107;47.652;19.016;2024-03-22T03:06:11;23.25;;;8.82;;
64682;SDS011;51107;47.652;19.016;2024-03-22T03:08:39;20.88;;;7.62;;
64682;SDS011;51107;47.652;19.016;2024-03-22T03:11:07;15.18;;;7.65;;
64682;SDS011;51107;47.652;19.016;2024-03-22T03:13:34;18.60;;;7.85;;
64682;SDS011;51107;47.652;19.016;2024-03-22T03:16:02;22.62;;;9.35;;
64682;SDS011;51107;47.652;19.016;2024-03-22T03:18:29;23.12;;;9.18;;
64682;SDS011;51107;47.652;19.016;2024-03-22T03:20:56;22.30;;;8.82;;
64682;SDS011;51107;47.652;19.016;2024-03-22T03:23:23;25.33;;;9.40;;
64682;SDS011;51107;47.652;19.016;2024-03-22T03:25:50;24.27;;;9.82;;
64682;SDS011;51107;47.652;19.016;2024-03-22T03:28:18;21.33;;;9.20;;
64682;SDS011;51107;47.652;19.016;2024-03-22T03:30:45;20.08;;;9.15;;
64682;SDS011;51107;47.652;19.016;2024-03-22T03:33:13;20.20;;;8.65;;
64682;SDS011;51107;47.652;19.016;2024-03-22T03:35:39;19.98;;;8.82;;
64682;SDS011;51107;47.652;19.016;2024-03-22T03:38:06;26.08;;;9.40;;
64682;SDS011;51107;47.652;19.016;2024-03-22T03:40:34;23.58;;;9.38;;
64682;SDS011;51107;47.652;19.016;2024-03-22T03:43:02;23.87;;;9.55;;
64682;SDS011;51107;47.652;19.016;2024-03-22T03:45:29;24.45;;;9.02;;
64682;SDS011;51107;47.652;19.016;2024-03-22T03:47:57;23.83;;;9.10;;
64682;SDS011;51107;47.652;19.016;2024-03-22T03:50:24;22.20;;;8.65;;
64682;SDS011;51107;47.652;19.016;2024-03-22T03:52:51;24.00;;;8.73;;
64682;SDS011;51107;47.652;19.016;2024-03-22T03:55:18;20.25;;;8.52;;
64682;SDS011;51107;47.652;19.016;2024-03-22T03:57:45;17.17;;;7.85;;
64682;SDS011;51107;47.652;19.016;2024-03-22T04:00:12;22.77;;;6.95;;
64682;SDS011;51107;47.652;19.016;2024-03-22T04:02:39;24.08;;;8.13;;
64682;SDS011;51107;47.652;19.016;2024-03-22T04:05:06;15.32;;;7.25;;
64682;SDS011;51107;47.652;19.016;2024-03-22T04:07:34;23.15;;;7.82;;
64682;SDS011;51107;47.652;19.016;2024-03-22T04:10:01;16.73;;;7.47;;
64682;SDS011;51107;47.652;19.016;2024-03-22T04:12:29;17.08;;;7.35;;
64682;SDS011;51107;47.652;19.016;2024-03-22T04:14:56;15.77;;;7.43;;
64682;SDS011;51107;47.652;19.016;2024-03-22T04:17:23;25.83;;;9.73;;
64682;SDS011;51107;47.652;19.016;2024-03-22T04:19:50;21.35;;;9.18;;
64682;SDS011;51107;47.652;19.016;2024-03-22T04:22:18;27.10;;;9.95;;
64682;SDS011;51107;47.652;19.016;2024-03-22T04:24:45;22.45;;;10.25;;
64682;SDS011;51107;47.652;19.016;2024-03-22T04:27:12;22.37;;;8.93;;
64682;SDS011;51107;47.652;19.016;2024-03-22T04:29:39;19.52;;;9.40;;
64682;SDS011;51107;47.652;19.016;2024-03-22T04:32:07;22.10;;;8.93;;
64682;SDS011;51107;47.652;19.016;2024-03-22T04:34:34;23.42;;;8.63;;
64682;SDS011;51107;47.652;19.016;2024-03-22T04:37:01;22.02;;;8.77;;
64682;SDS011;51107;47.652;19.016;2024-03-22T04:39:28;19.58;;;8.18;;
64682;SDS011;51107;47.652;19.016;2024-03-22T04:41:55;18.98;;;7.65;;
64682;SDS011;51107;47.652;19.016;2024-03-22T04:44:22;20.12;;;7.97;;
64682;SDS011;51107;47.652;19.016;2024-03-22T04:46:51;18.98;;;7.78;;
64682;SDS011;51107;47.652;19.016;2024-03-22T04:49:18;13.57;;;6.05;;
64682;SDS011;51107;47.652;19.016;2024-03-22T04:51:46;13.07;;;6.40;;
64682;SDS011;51107;47.652;19.016;2024-03-22T04:54:13;15.90;;;6.57;;
64682;SDS011;51107;47.652;19.016;2024-03-22T04:56:40;18.00;;;6.97;;
64682;SDS011;51107;47.652;19.016;2024-03-22T04:59:07;14.57;;;7.00;;
64682;SDS011;51107;47.652;19.016;2024-03-22T05:01:35;22.75;;;6.82;;
64682;SDS011;51107;47.652;19.016;2024-03-22T05:04:02;19.23;;;7.05;;
64682;SDS011;51107;47.652;19.016;2024-03-22T05:06:29;19.98;;;7.15;;
64682;SDS011;51107;47.652;19.016;2024-03-22T05:08:56;17.95;;;7.07;;
64682;SDS011;51107;47.652;19.016;2024-03-22T05:11:23;19.70;;;7.32;;
64682;SDS011;51107;47.652;19.016;2024-03-22T05:13:50;13.95;;;6.18;;
64682;SDS011;51107;47.652;19.016;2024-03-22T05:16:18;16.00;;;6.60;;
64682;SDS011;51107;47.652;19.016;2024-03-22T05:18:45;14.48;;;5.70;;
64682;SDS011;51107;47.652;19.016;2024-03-22T05:21:12;18.23;;;6.37;;
64682;SDS011;51107;47.652;19.016;2024-03-22T05:23:39;15.50;;;6.20;;
64682;SDS011;51107;47.652;19.016;2024-03-22T05:26:06;14.95;;;6.68;;
64682;SDS011;51107;47.652;19.016;2024-03-22T05:28:33;16.35;;;5.82;;
64682;SDS011;51107;47.652;19.016;2024-03-22T05:31:00;13.95;;;6.60;;
64682;SDS011;51107;47.652;19.016;2024-03-22T05:33:27;14.90;;;6.70;;
64682;SDS011;51107;47.652;19.016;2024-03-22T05:35:55;20.55;;;6.72;;
64682;SDS011;51107;47.652;19.016;2024-03-22T05:38:22;16.12;;;7.25;;
64682;SDS011;51107;47.652;19.016;2024-03-22T05:40:49;15.65;;;6.57;;
64682;SDS011;51107;47.652;19.016;2024-03-22T05:43:16;16.27;;;6.80;;
64682;SDS011;51107;47.652;19.016;2024-03-22T05:45:44;14.80;;;6.80;;
64682;SDS011;51107;47.652;19.016;2024-03-22T05:48:11;16.52;;;7.00;;
64682;SDS011;51107;47.652;19.016;2024-03-22T05:50:38;25.83;;;7.62;;
64682;SDS011;51107;47.652;19.016;2024-03-22T05:53:05;15.68;;;6.85;;
64682;SDS011;51107;47.652;19.016;2024-03-22T05:55:32;15.90;;;7.62;;
64682;SDS011;51107;47.652;19.016;2024-03-22T05:57:59;14.68;;;6.20;;
64682;SDS011;51107;47.652;19.016;2024-03-22T06:00:27;16.02;;;6.90;;
64682;SDS011;51107;47.652;19.016;2024-03-22T06:02:54;17.20;;;6.75;;
64682;SDS011;51107;47.652;19.016;2024-03-22T06:05:21;16.45;;;7.05;;
64682;SDS011;51107;47.652;19.016;2024-03-22T06:07:48;13.07;;;6.37;;
64682;SDS011;51107;47.652;19.016;2024-03-22T06:10:15;13.85;;;6.28;;
64682;SDS011;51107;47.652;19.016;2024-03-22T06:12:43;32.78;;;6.80;;
64682;SDS011;51107;47.652;19.016;2024-03-22T06:15:13;15.60;;;6.82;;
64682;SDS011;51107;47.652;19.016;2024-03-22T06:17:41;17.12;;;6.70;;
64682;SDS011;51107;47.652;19.016;2024-03-22T06:20:09;19.33;;;6.82;;
64682;SDS011;51107;47.652;19.016;2024-03-22T06:22:38;18.10;;;6.70;;
64682;SDS011;51107;47.652;19.016;2024-03-22T06:25:06;14.43;;;6.55;;
64682;SDS011;51107;47.652;19.016;2024-03-22T06:27:33;52.15;;;8.38;;
64682;SDS011;51107;47.652;19.016;2024-03-22T06:30:00;42.47;;;6.68;;
64682;SDS011;51107;47.652;19.016;2024-03-22T06:32:27;35.28;;;6.37;;
64682;SDS011;51107;47.652;19.016;2024-03-22T06:34:54;15.40;;;6.37;;
64682;SDS011;51107;47.652;19.016;2024-03-22T06:37:21;23.70;;;7.05;;
64682;SDS011;51107;47.652;19.016;2024-03-22T06:39:49;21.90;;;6.60;;
64682;SDS011;51107;47.652;19.016;2024-03-22T06:42:16;21.87;;;6.62;;
64682;SDS011;51107;47.652;19.016;2024-03-22T06:44:43;21.58;;;6.75;;
64682;SDS011;51107;47.652;19.016;2024-03-22T06:47:11;15.05;;;6.80;;
64682;SDS011;51107;47.652;19.016;2024-03-22T06:49:38;12.15;;;6.30;;
64682;SDS011;51107;47.652;19.016;2024-03-22T06:52:05;14.25;;;6.85;;
64682;SDS011;51107;47.652;19.016;2024-03-22T06:54:32;16.48;;;7.03;;
64682;SDS011;51107;47.652;19.016;2024-03-22T06:56:59;14.15;;;7.05;;
64682;SDS011;51107;47.652;19.016;2024-03-22T06:59:27;20.12;;;6.70;;
64682;SDS011;51107;47.652;19.016;2024-03-22T07:01:54;15.30;;;6.93;;
64682;SDS011;51107;47.652;19.016;2024-03-22T07:04:21;43.92;;;7.45;;
64682;SDS011;51107;47.652;19.016;2024-03-22T07:06:48;21.20;;;6.78;;
64682;SDS011;51107;47.652;19.016;2024-03-22T07:09:15;14.63;;;6.47;;
64682;SDS011;51107;47.652;19.016;2024-03-22T07:11:43;16.00;;;6.85;;
64682;SDS011;51107;47.652;19.016;2024-03-22T07:14:10;17.77;;;6.45;;
64682;SDS011;51107;47.652;19.016;2024-03-22T07:16:37;16.08;;;7.43;;
64682;SDS011;51107;47.652;19.016;2024-03-22T07:19:04;14.15;;;6.80;;
64682;SDS011;51107;47.652;19.016;2024-03-22T07:21:32;17.87;;;6.72;;
64682;SDS011;51107;47.652;19.016;2024-03-22T07:23:59;15.27;;;7.03;;
64682;SDS011;51107;47.652;19.016;2024-03-22T07:26:26;14.38;;;7.03;;
64682;SDS011;51107;47.652;19.016;2024-03-22T07:28:54;16.12;;;7.50;;
64682;SDS011;51107;47.652;19.016;2024-03-22T07:31:21;14.90;;;7.00;;
64682;SDS011;51107;47.652;19.016;2024-03-22T07:33:48;16.17;;;6.62;;
64682;SDS011;51107;47.652;19.016;2024-03-22T07:36:15;13.07;;;6.93;;
64682;SDS011;51107;47.652;19.016;2024-03-22T07:38:43;19.85;;;7.10;;
64682;SDS011;51107;47.652;19.016;2024-03-22T07:41:10;13.05;;;6.53;;
64682;SDS011;51107;47.652;19.016;2024-03-22T07:43:37;14.38;;;6.97;;
64682;SDS011;51107;47.652;19.016;2024-03-22T07:46:05;15.75;;;6.60;;
64682;SDS011;51107;47.652;19.016;2024-03-22T07:48:32;17.08;;;8.07;;
64682;SDS011;51107;47.652;19.016;2024-03-22T07:51:00;15.90;;;7.03;;
64682;SDS011;51107;47.652;19.016;2024-03-22T07:53:28;14.05;;;7.20;;
64682;SDS011;51107;47.652;19.016;2024-03-22T07:55:56;17.30;;;7.03;;
64682;SDS011;51107;47.652;19.016;2024-03-22T07:58:23;13.68;;;7.22;;
64682;SDS011;51107;47.652;19.016;2024-03-22T08:00:50;21.15;;;7.50;;
64682;SDS011;51107;47.652;19.016;2024-03-22T08:03:18;14.73;;;7.28;;
64682;SDS011;51107;47.652;19.016;2024-03-22T08:05:45;16.58;;;7.85;;
64682;SDS011;51107;47.652;19.016;2024-03-22T08:08:12;29.50;;;7.60;;
64682;SDS011;51107;47.652;19.016;2024-03-22T08:10:39;25.12;;;8.35;;
64682;SDS011;51107;47.652;19.016;2024-03-22T08:13:06;16.98;;;7.60;;
64682;SDS011;51107;47.652;19.016;2024-03-22T08:15:33;14.95;;;6.62;;
64682;SDS011;51107;47.652;19.016;2024-03-22T08:18:02;19.55;;;7.90;;
64682;SDS011;51107;47.652;19.016;2024-03-22T08:20:29;18.02;;;7.60;;
64682;SDS011;51107;47.652;19.016;2024-03-22T08:22:59;18.62;;;7.45;;
64682;SDS011;51107;47.652;19.016;2024-03-22T08:25:26;14.65;;;7.20;;
64682;SDS011;51107;47.652;19.016;2024-03-22T08:27:53;14.05;;;6.97;;
64682;SDS011;51107;47.652;19.016;2024-03-22T08:30:22;16.02;;;7.18;;
64682;SDS011;51107;47.652;19.016;2024-03-22T08:32:50;14.35;;;6.72;;
64682;SDS011;51107;47.652;19.016;2024-03-22T08:35:17;15.93;;;6.78;;
64682;SDS011;51107;47.652;19.016;2024-03-22T08:37:44;12.82;;;6.43;;
64682;SDS011;51107;47.652;19.016;2024-03-22T08:40:11;14.80;;;7.20;;
64682;SDS011;51107;47.652;19.016;2024-03-22T08:42:40;14.30;;;6.10;;
64682;SDS011;51107;47.652;19.016;2024-03-22T08:45:08;15.18;;;6.87;;
64682;SDS011;51107;47.652;19.016;2024-03-22T08:47:36;17.98;;;6.62;;
64682;SDS011;51107;47.652;19.016;2024-03-22T08:50:03;19.60;;;6.95;;
64682;SDS011;51107;47.652;19.016;2024-03-22T08:52:31;15.20;;;6.75;;
64682;SDS011;51107;47.652;19.016;2024-03-22T08:54:59;14.10;;;7.28;;
64682;SDS011;51107;47.652;19.016;2024-03-22T08:57:26;11.73;;;6.05;;
64682;SDS011;51107;47.652;19.016;2024-03-22T08:59:53;12.88;;;6.90;;
64682;SDS011;51107;47.652;19.016;2024-03-22T09:02:20;18.83;;;7.85;;
64682;SDS011;51107;47.652;19.016;2024-03-22T09:04:47;21.90;;;7.53;;
64682;SDS011;51107;47.652;19.016;2024-03-22T09:07:15;18.33;;;7.22;;
64682;SDS011;51107;47.652;19.016;2024-03-22T09:09:42;16.83;;;6.60;;
64682;SDS011;51107;47.652;19.016;2024-03-22T09:12:09;19.17;;;6.80;;
64682;SDS011;51107;47.652;19.016;2024-03-22T09:14:36;14.73;;;6.30;;
64682;SDS011;51107;47.652;19.016;2024-03-22T09:17:03;12.90;;;6.68;;
64682;SDS011;51107;47.652;19.016;2024-03-22T09:19:31;13.35;;;7.05;;
64682;SDS011;51107;47.652;19.016;2024-03-22T09:21:58;15.18;;;6.55;;
64682;SDS011;51107;47.652;19.016;2024-03-22T09:24:25;14.10;;;6.32;;
64682;SDS011;51107;47.652;19.016;2024-03-22T09:26:52;15.48;;;7.03;;
64682;SDS011;51107;47.652;19.016;2024-03-22T09:29:19;13.40;;;6.87;;
64682;SDS011;51107;47.652;19.016;2024-03-22T09:31:46;12.95;;;7.03;;
64682;SDS011;51107;47.652;19.016;2024-03-22T09:34:14;14.82;;;6.95;;
64682;SDS011;51107;47.652;19.016;2024-03-22T09:36:42;15.20;;;6.65;;
64682;SDS011;51107;47.652;19.016;2024-03-22T09:39:09;12.43;;;6.15;;
64682;SDS011;51107;47.652;19.016;2024-03-22T09:41:40;14.65;;;6.68;;
64682;SDS011;51107;47.652;19.016;2024-03-22T09:44:12;15.50;;;6.82;;
64682;SDS011;51107;47.652;19.016;2024-03-22T09:46:41;13.75;;;6.50;;
64682;SDS011;51107;47.652;19.016;2024-03-22T09:49:09;18.23;;;6.55;;
64682;SDS011;51107;47.652;19.016;2024-03-22T09:51:41;14.23;;;6.97;;
64682;SDS011;51107;47.652;19.016;2024-03-22T09:54:10;16.12;;;6.70;;
64682;SDS011;51107;47.652;19.016;2024-03-22T09:56:40;13.32;;;6.43;;
64682;SDS011;51107;47.652;19.016;2024-03-22T09:59:09;13.02;;;6.72;;
64682;SDS011;51107;47.652;19.016;2024-03-22T10:01:39;11.20;;;6.35;;
64682;SDS011;51107;47.652;19.016;2024-03-22T10:04:08;11.10;;;5.90;;
64682;SDS011;51107;47.652;19.016;2024-03-22T10:06:37;13.98;;;5.80;;
64682;SDS011;51107;47.652;19.016;2024-03-22T10:09:04;9.30;;;5.40;;
64682;SDS011;51107;47.652;19.016;2024-03-22T10:11:32;18.45;;;5.35;;
64682;SDS011;51107;47.652;19.016;2024-03-22T10:14:00;12.82;;;5.32;;
64682;SDS011;51107;47.652;19.016;2024-03-22T10:16:32;9.93;;;5.37;;
64682;SDS011;51107;47.652;19.016;2024-03-22T10:19:01;9.32;;;5.28;;
64682;SDS011;51107;47.652;19.016;2024-03-22T10:21:28;9.60;;;5.53;;
64682;SDS011;51107;47.652;19.016;2024-03-22T10:23:55;8.38;;;4.40;;
64682;SDS011;51107;47.652;19.016;2024-03-22T10:26:23;9.88;;;5.25;;
64682;SDS011;51107;47.652;19.016;2024-03-22T10:28:50;9.75;;;4.93;;
64682;SDS011;51107;47.652;19.016;2024-03-22T10:31:17;10.57;;;5.50;;
64682;SDS011;51107;47.652;19.016;2024-03-22T10:33:47;9.48;;;5.00;;
64682;SDS011;51107;47.652;19.016;2024-03-22T10:36:16;8.75;;;4.62;;
64682;SDS011;51107;47.652;19.016;2024-03-22T10:38:45;10.35;;;5.35;;
64682;SDS011;51107;47.652;19.016;2024-03-22T10:41:13;13.73;;;4.97;;
64682;SDS011;51107;47.652;19.016;2024-03-22T10:43:41;9.63;;;5.07;;
64682;SDS011;51107;47.652;19.016;2024-03-22T10:46:09;19.45;;;5.80;;
64682;SDS011;51107;47.652;19.016;2024-03-22T10:48:37;13.32;;;5.40;;
64682;SDS011;51107;47.652;19.016;2024-03-22T10:51:06;15.38;;;5.53;;
64682;SDS011;51107;47.652;19.016;2024-03-22T10:53:34;11.23;;;5.57;;
64682;SDS011;51107;47.652;19.016;2024-03-22T10:56:03;17.42;;;5.35;;
64682;SDS011;51107;47.652;19.016;2024-03-22T10:58:32;9.43;;;5.32;;
64682;SDS011;51107;47.652;19.016;2024-03-22T11:00:59;9.20;;;5.15;;
64682;SDS011;51107;47.652;19.016;2024-03-22T11:03:27;21.15;;;5.97;;
64682;SDS011;51107;47.652;19.016;2024-03-22T11:05:58;11.63;;;6.00;;
64682;SDS011;51107;47.652;19.016;2024-03-22T11:08:26;12.57;;;6.05;;
64682;SDS011;51107;47.652;19.016;2024-03-22T11:10:54;15.52;;;6.68;;
64682;SDS011;51107;47.652;19.016;2024-03-22T11:13:23;11.88;;;6.60;;
64682;SDS011;51107;47.652;19.016;2024-03-22T11:15:50;14.48;;;6.75;;
64682;SDS011;51107;47.652;19.016;2024-03-22T11:18:18;12.25;;;5.82;;
64682;SDS011;51107;47.652;19.016;2024-03-22T11:20:45;12.15;;;6.05;;
64682;SDS011;51107;47.652;19.016;2024-03-22T11:23:13;11.18;;;5.78;;
64682;SDS011;51107;47.652;19.016;2024-03-22T11:25:40;14.90;;;5.28;;
64682;SDS011;51107;47.652;19.016;2024-03-22T11:28:07;9.35;;;5.12;;
64682;SDS011;51107;47.652;19.016;2024-03-22T11:30:34;8.68;;;4.37;;
64682;SDS011;51107;47.652;19.016;2024-03-22T11:33:02;18.48;;;5.45;;
64682;SDS011;51107;47.652;19.016;2024-03-22T11:35:30;10.40;;;5.03;;
64682;SDS011;51107;47.652;19.016;2024-03-22T11:37:57;17.80;;;6.03;;
64682;SDS011;51107;47.652;19.016;2024-03-22T11:40:25;12.07;;;5.87;;
64682;SDS011;51107;47.652;19.016;2024-03-22T11:42:54;15.13;;;5.75;;
64682;SDS011;51107;47.652;19.016;2024-03-22T11:45:22;10.23;;;5.30;;
64682;SDS011;51107;47.652;19.016;2024-03-22T11:47:50;11.43;;;5.85;;
64682;SDS011;51107;47.652;19.016;2024-03-22T11:50:17;16.08;;;6.37;;
64682;SDS011;51107;47.652;19.016;2024-03-22T11:52:45;12.82;;;6.00;;
64682;SDS011;51107;47.652;19.016;2024-03-22T11:55:15;9.77;;;5.15;;
64682;SDS011;51107;47.652;19.016;2024-03-22T11:57:47;10.98;;;5.18;;
64682;SDS011;51107;47.652;19.016;2024-03-22T12:00:17;9.55;;;5.20;;
64682;SDS011;51107;47.652;19.016;2024-03-22T12:02:45;12.35;;;5.35;;
64682;SDS011;51107;47.652;19.016;2024-03-22T12:05:12;12.88;;;5.60;;
64682;SDS011;51107;47.652;19.016;2024-03-22T12:07:39;10.63;;;5.30;;
64682;SDS011;51107;47.652;19.016;2024-03-22T12:10:07;9.63;;;4.60;;
64682;SDS011;51107;47.652;19.016;2024-03-22T12:12:34;11.55;;;4.57;;
64682;SDS011;51107;47.652;19.016;2024-03-22T12:15:03;11.10;;;4.32;;
64682;SDS011;51107;47.652;19.016;2024-03-22T12:17:31;7.85;;;4.45;;
64682;SDS011;51107;47.652;19.016;2024-03-22T12:19:58;11.10;;;4.45;;
64682;SDS011;51107;47.652;19.016;2024-03-22T12:22:25;8.52;;;4.60;;
64682;SDS011;51107;47.652;19.016;2024-03-22T12:24:52;10.10;;;4.30;;
64682;SDS011;51107;47.652;19.016;2024-03-22T12:27:19;13.30;;;4.93;;
64682;SDS011;51107;47.652;19.016;2024-03-22T12:29:49;11.25;;;4.62;;
64682;SDS011;51107;47.652;19.016;2024-03-22T12:32:16;9.02;;;4.82;;
64682;SDS011;51107;47.652;19.016;2024-03-22T12:34:43;8.65;;;4.75;;
64682;SDS011;51107;47.652;19.016;2024-03-22T12:37:10;10.85;;;5.35;;
64682;SDS011;51107;47.652;19.016;2024-03-22T12:39:38;9.75;;;5.00;;
64682;SDS011;51107;47.652;19.016;2024-03-22T12:42:06;20.77;;;5.00;;
64682;SDS011;51107;47.652;19.016;2024-03-22T12:44:33;10.95;;;5.90;;
64682;SDS011;51107;47.652;19.016;2024-03-22T12:47:01;11.73;;;4.65;;
64682;SDS011;51107;47.652;19.016;2024-03-22T12:49:28;10.27;;;5.15;;
64682;SDS011;51107;47.652;19.016;2024-03-22T12:51:55;11.15;;;4.97;;
64682;SDS011;51107;47.652;19.016;2024-03-22T12:54:23;21.33;;;5.45;;
64682;SDS011;51107;47.652;19.016;2024-03-22T12:56:52;9.68;;;5.50;;
64682;SDS011;51107;47.652;19.016;2024-03-22T12:59:19;10.25;;;5.20;;
64682;SDS011;51107;47.652;19.016;2024-03-22T13:01:47;11.52;;;4.60;;
64682;SDS011;51107;47.652;19.016;2024-03-22T13:04:14;9.43;;;5.25;;
64682;SDS011;51107;47.652;19.016;2024-03-22T13:06:41;11.38;;;5.43;;
64682;SDS011;51107;47.652;19.016;2024-03-22T13:09:08;10.45;;;4.50;;
64682;SDS011;51107;47.652;19.016;2024-03-22T13:11:36;9.00;;;3.95;;
64682;SDS011;51107;47.652;19.016;2024-03-22T13:14:04;9.30;;;4.45;;
64682;SDS011;51107;47.652;19.016;2024-03-22T13:16:31;9.55;;;4.20;;
64682;SDS011;51107;47.652;19.016;2024-03-22T13:18:58;11.57;;;4.35;;
64682;SDS011;51107;47.652;19.016;2024-03-22T13:21:25;10.50;;;4.53;;
64682;SDS011;51107;47.652;19.016;2024-03-22T13:23:53;8.50;;;4.20;;
64682;SDS011;51107;47.652;19.016;2024-03-22T13:26:21;16.33;;;4.05;;
64682;SDS011;51107;47.652;19.016;2024-03-22T13:28:48;8.23;;;4.72;;
64682;SDS011;51107;47.652;19.016;2024-03-22T13:31:15;9.32;;;4.90;;
64682;SDS011;51107;47.652;19.016;2024-03-22T13:33:42;6.35;;;4.05;;
64682;SDS011;51107;47.652;19.016;2024-03-22T13:36:09;8.35;;;4.57;;
64682;SDS011;51107;47.652;19.016;2024-03-22T13:38:36;9.77;;;5.10;;
64682;SDS011;51107;47.652;19.016;2024-03-22T13:41:03;10.82;;;5.12;;
64682;SDS011;51107;47.652;19.016;2024-03-22T13:43:32;16.30;;;5.00;;
64682;SDS011;51107;47.652;19.016;2024-03-22T13:46:00;12.07;;;6.05;;
64682;SDS011;51107;47.652;19.016;2024-03-22T13:48:27;14.40;;;5.30;;
64682;SDS011;51107;47.652;19.016;2024-03-22T13:50:55;10.80;;;5.75;;
64682;SDS011;51107;47.652;19.016;2024-03-22T13:53:22;14.90;;;5.35;;
64682;SDS011;51107;47.652;19.016;2024-03-22T13:55:50;20.17;;;5.12;;
64682;SDS011;51107;47.652;19.016;2024-03-22T13:58:20;9.48;;;4.53;;
64682;SDS011;51107;47.652;19.016;2024-03-22T14:00:47;13.55;;;4.62;;
64682;SDS011;51107;47.652;19.016;2024-03-22T14:03:14;11.63;;;4.65;;
64682;SDS011;51107;47.652;19.016;2024-03-22T14:05:42;8.88;;;4.82;;
64682;SDS011;51107;47.652;19.016;2024-03-22T14:08:09;13.55;;;4.87;;
64682;SDS011;51107;47.652;19.016;2024-03-22T14:10:36;8.82;;;4.40;;
64682;SDS011;51107;47.652;19.016;2024-03-22T14:13:04;8.27;;;4.43;;
64682;SDS011;51107;47.652;19.016;2024-03-22T14:15:34;23.62;;;4.90;;
64682;SDS011;51107;47.652;19.016;2024-03-22T14:18:02;8.05;;;4.60;;
64682;SDS011;51107;47.652;19.016;2024-03-22T14:20:29;8.25;;;4.60;;
64682;SDS011;51107;47.652;19.016;2024-03-22T14:22:57;7.90;;;4.65;;
64682;SDS011;51107;47.652;19.016;2024-03-22T14:25:24;8.82;;;4.60;;